createdAt,value
2023-10-14T00:00:26.518Z,1.8
2023-10-14T00:00:42.646Z,1.8
2023-10-14T00:01:15.054Z,1.8
2023-10-14T00:01:35.214Z,1.8
2023-10-14T00:02:01.721Z,1.8
2023-10-14T00:02:34.466Z,1.8
2023-10-14T00:03:05.447Z,1.8
2023-10-14T00:03:34.858Z,1.8
2023-10-14T00:03:54.596Z,1.8
2023-10-14T00:04:25.587Z,1.8
2023-10-14T00:04:42.638Z,1.8
2023-10-14T00:05:14.481Z,1.8
2023-10-14T00:05:35.140Z,1.8
2023-10-14T00:06:01.911Z,1.8
2023-10-14T00:06:34.287Z,1.8
2023-10-14T00:07:05.437Z,1.8
2023-10-14T00:07:34.797Z,1.8
2023-10-14T00:07:54.431Z,1.8
2023-10-14T00:08:25.522Z,1.8
2023-10-14T00:08:42.637Z,1.8
2023-10-14T00:09:14.305Z,1.8
2023-10-14T00:09:35.299Z,1.8
2023-10-14T00:10:01.854Z,1.8
2023-10-14T00:10:34.289Z,0
2023-10-14T00:11:05.460Z,0
2023-10-14T00:11:34.676Z,0
2023-10-14T00:11:54.180Z,0
2023-10-14T00:12:25.455Z,0
2023-10-14T00:12:42.551Z,0
2023-10-14T00:13:14.216Z,0
2023-10-14T00:13:34.747Z,0
2023-10-14T00:14:01.574Z,0
2023-10-14T00:14:34.265Z,0
2023-10-14T00:15:05.596Z,0
2023-10-14T00:15:34.725Z,0
2023-10-14T00:15:54.836Z,0
2023-10-14T00:16:25.636Z,0
2023-10-14T00:16:58.319Z,0
2023-10-14T00:17:29.501Z,0
2023-10-14T00:18:01.759Z,0
2023-10-14T00:18:33.396Z,0
2023-10-14T00:19:05.519Z,0
2023-10-14T00:19:34.698Z,0
2023-10-14T00:19:53.483Z,0
2023-10-14T00:20:26.388Z,0
2023-10-14T00:20:57.513Z,0
2023-10-14T00:21:29.432Z,0
2023-10-14T00:22:01.863Z,0
2023-10-14T00:22:33.345Z,0
2023-10-14T00:23:05.530Z,0
2023-10-14T00:23:34.748Z,0
2023-10-14T00:23:54.476Z,0
2023-10-14T00:24:25.588Z,0
2023-10-14T00:24:42.528Z,0
2023-10-14T00:25:14.478Z,0
2023-10-14T00:25:34.811Z,0
2023-10-14T00:26:01.566Z,0
2023-10-14T00:26:34.245Z,0
2023-10-14T00:27:05.427Z,0
2023-10-14T00:27:34.740Z,0
2023-10-14T00:27:54.256Z,0
2023-10-14T00:28:25.681Z,0
2023-10-14T00:28:42.533Z,0
2023-10-14T00:29:14.273Z,0
2023-10-14T00:29:34.696Z,0
2023-10-14T00:30:01.953Z,0
2023-10-14T00:30:34.377Z,0
2023-10-14T00:31:05.547Z,0
2023-10-14T00:31:34.901Z,0
2023-10-14T00:31:54.333Z,0
2023-10-14T00:32:25.861Z,0
2023-10-14T00:32:42.892Z,0
2023-10-14T00:33:14.388Z,0
2023-10-14T00:33:34.668Z,0
2023-10-14T00:34:02.086Z,0
2023-10-14T00:34:34.307Z,0
2023-10-14T00:35:05.576Z,0
2023-10-14T00:35:35.071Z,0
2023-10-14T00:35:54.544Z,0
2023-10-14T00:36:25.475Z,0
2023-10-14T00:36:42.631Z,0
2023-10-14T00:37:14.176Z,0
2023-10-14T00:37:34.680Z,0
2023-10-14T00:38:01.608Z,0
2023-10-14T00:38:34.471Z,0
2023-10-14T00:39:05.439Z,0
2023-10-14T00:39:34.739Z,0
2023-10-14T00:39:54.387Z,0
2023-10-14T00:40:25.608Z,0
2023-10-14T00:40:43.030Z,0
2023-10-14T00:41:14.353Z,0
2023-10-14T00:41:34.907Z,0
2023-10-14T00:42:01.563Z,0
2023-10-14T00:42:34.593Z,0
2023-10-14T00:43:05.531Z,0
2023-10-14T00:43:34.772Z,0
2023-10-14T00:43:54.215Z,0
2023-10-14T00:44:25.740Z,0
2023-10-14T00:44:42.511Z,0
2023-10-14T00:45:14.578Z,0
2023-10-14T00:45:35.030Z,0
2023-10-14T00:46:02.236Z,0
2023-10-14T00:46:34.173Z,0
2023-10-14T00:47:05.453Z,1.8
2023-10-14T00:47:35.298Z,1.8
2023-10-14T00:47:54.340Z,1.8
2023-10-14T00:48:25.655Z,1.8
2023-10-14T00:48:42.659Z,1.8
2023-10-14T00:49:14.319Z,1.8
2023-10-14T00:49:35.155Z,1.8
2023-10-14T00:50:01.803Z,1.8
2023-10-14T00:50:34.288Z,1.8
2023-10-14T00:51:05.582Z,1.8
2023-10-14T00:51:34.910Z,1.8
2023-10-14T00:51:54.565Z,1.8
2023-10-14T00:52:25.681Z,1.8
2023-10-14T00:52:42.611Z,1.8
2023-10-14T00:53:14.354Z,1.8
2023-10-14T00:53:34.827Z,1.8
2023-10-14T00:54:01.539Z,1.8
2023-10-14T00:54:34.346Z,1.8
2023-10-14T00:55:05.817Z,1.8
2023-10-14T00:55:34.907Z,1.8
2023-10-14T00:55:54.731Z,1.8
2023-10-14T00:56:25.473Z,2.9
2023-10-14T00:56:42.581Z,2.9
2023-10-14T00:57:14.306Z,2.9
2023-10-14T00:57:34.735Z,2.9
2023-10-14T00:58:01.591Z,2.9
2023-10-14T00:58:34.268Z,1.1
2023-10-14T00:59:05.450Z,1.1
2023-10-14T00:59:34.733Z,2.9
2023-10-14T00:59:54.262Z,2.9
2023-10-14T01:00:25.925Z,2.9
2023-10-14T01:00:42.571Z,2.9
2023-10-14T01:01:14.380Z,2.9
2023-10-14T01:01:34.830Z,2.9
2023-10-14T01:02:01.574Z,2.9
2023-10-14T01:02:34.523Z,2.9
2023-10-14T01:03:05.455Z,2.9
2023-10-14T01:03:34.728Z,4.1
2023-10-14T01:04:01.448Z,4.1
2023-10-14T01:04:25.547Z,4.1
2023-10-14T01:04:42.918Z,4.1
2023-10-14T01:05:14.680Z,4.1
2023-10-14T01:05:35.321Z,4.1
2023-10-14T01:06:01.871Z,4.1
2023-10-14T01:06:34.436Z,4.1
2023-10-14T01:07:05.759Z,2.9
2023-10-14T01:07:34.808Z,2.9
2023-10-14T01:07:54.262Z,2.9
2023-10-14T01:08:25.569Z,2.9
2023-10-14T01:08:42.554Z,2.9
2023-10-14T01:09:14.301Z,2.9
2023-10-14T01:09:35.111Z,2.9
2023-10-14T01:10:01.775Z,2.9
2023-10-14T01:10:35.975Z,1.1
2023-10-14T01:11:05.445Z,1.1
2023-10-14T01:11:34.988Z,1.1
2023-10-14T01:11:54.263Z,1.1
2023-10-14T01:12:25.509Z,1.1
2023-10-14T01:12:42.627Z,1.1
2023-10-14T01:13:14.372Z,1.1
2023-10-14T01:13:34.734Z,1.1
2023-10-14T01:14:01.493Z,1.1
2023-10-14T01:14:34.224Z,0
2023-10-14T01:15:05.755Z,0
2023-10-14T01:15:35.212Z,0
2023-10-14T01:15:54.500Z,0
2023-10-14T01:16:25.564Z,0
2023-10-14T01:16:42.624Z,0
2023-10-14T01:17:14.172Z,0
2023-10-14T01:17:34.991Z,0
2023-10-14T01:18:01.506Z,0
2023-10-14T01:18:34.805Z,0
2023-10-14T01:19:05.433Z,0
2023-10-14T01:19:35.046Z,0
2023-10-14T01:19:54.185Z,0
2023-10-14T01:20:25.564Z,0
2023-10-14T01:20:43.598Z,1.8
2023-10-14T01:21:14.277Z,1.8
2023-10-14T01:21:34.927Z,1.8
2023-10-14T01:22:01.747Z,1.8
2023-10-14T01:22:34.271Z,1.8
2023-10-14T01:23:05.499Z,1.8
2023-10-14T01:23:34.735Z,1.8
2023-10-14T01:23:54.301Z,1.8
2023-10-14T01:24:25.538Z,1.8
2023-10-14T01:24:42.777Z,1.8
2023-10-14T01:25:14.636Z,1.8
2023-10-14T01:25:35.141Z,1.8
2023-10-14T01:26:01.501Z,1.8
2023-10-14T01:26:34.384Z,1.8
2023-10-14T01:27:05.438Z,1.8
2023-10-14T01:27:34.919Z,1.8
2023-10-14T01:27:54.273Z,1.8
2023-10-14T01:28:26.415Z,1.8
2023-10-14T01:28:57.450Z,1.8
2023-10-14T01:29:30.055Z,1.8
2023-10-14T01:30:02.023Z,1.8
2023-10-14T01:30:33.438Z,1.8
2023-10-14T01:31:05.397Z,0
2023-10-14T01:31:34.950Z,0
2023-10-14T01:31:53.539Z,0
2023-10-14T01:32:26.513Z,1.1
2023-10-14T01:32:43.265Z,1.1
2023-10-14T01:33:13.542Z,1.1
2023-10-14T01:33:34.852Z,1.1
2023-10-14T01:34:02.422Z,1.1
2023-10-14T01:34:33.572Z,1.1
2023-10-14T01:35:05.589Z,1.1
2023-10-14T01:35:34.730Z,1.1
2023-10-14T01:35:54.059Z,1.1
2023-10-14T01:36:26.333Z,1.1
2023-10-14T01:36:42.869Z,1.1
2023-10-14T01:37:13.428Z,1.1
2023-10-14T01:37:35.005Z,1.1
2023-10-14T01:38:02.161Z,1.1
2023-10-14T01:38:33.498Z,1.1
2023-10-14T01:39:05.465Z,1.1
2023-10-14T01:39:34.810Z,1.1
2023-10-14T01:39:53.561Z,1.1
2023-10-14T01:40:26.414Z,1.1
2023-10-14T01:40:42.660Z,1.1
2023-10-14T01:41:13.470Z,1.1
2023-10-14T01:41:35.669Z,1.1
2023-10-14T01:42:01.560Z,1.1
2023-10-14T01:42:34.412Z,1.1
2023-10-14T01:43:05.431Z,0
2023-10-14T01:43:34.698Z,0
2023-10-14T01:43:54.326Z,0
2023-10-14T01:44:25.589Z,0
2023-10-14T01:44:42.463Z,0
2023-10-14T01:45:14.380Z,0
2023-10-14T01:45:35.122Z,0
2023-10-14T01:46:02.380Z,0
2023-10-14T01:46:34.242Z,0
2023-10-14T01:47:05.516Z,0
2023-10-14T01:47:34.699Z,0
2023-10-14T01:47:54.076Z,0
2023-10-14T01:48:25.437Z,0
2023-10-14T01:48:42.625Z,0
2023-10-14T01:49:14.094Z,0
2023-10-14T01:49:34.671Z,0
2023-10-14T01:50:01.682Z,0
2023-10-14T01:50:34.167Z,0
2023-10-14T01:51:05.408Z,1.8
2023-10-14T01:51:34.757Z,1.8
2023-10-14T01:51:54.368Z,2.9
2023-10-14T01:52:25.557Z,7.7
2023-10-14T01:52:42.589Z,8.9
2023-10-14T01:53:14.426Z,10.7
2023-10-14T01:53:34.954Z,12.5
2023-10-14T01:54:01.565Z,12.5
2023-10-14T01:54:34.305Z,13.7
2023-10-14T01:55:05.629Z,15.5
2023-10-14T01:55:34.723Z,16.7
2023-10-14T01:55:54.444Z,16.7
2023-10-14T01:56:25.611Z,18.5
2023-10-14T01:56:42.792Z,18.5
2023-10-14T01:57:14.273Z,18.5
2023-10-14T01:57:34.729Z,18.5
2023-10-14T01:58:01.673Z,19.8
2023-10-14T01:58:35.113Z,19.8
2023-10-14T01:59:05.627Z,19.8
2023-10-14T01:59:35.355Z,19.8
2023-10-14T01:59:54.522Z,19.8
2023-10-14T02:00:25.918Z,21.5
2023-10-14T02:00:42.575Z,21.5
2023-10-14T02:01:14.737Z,21.5
2023-10-14T02:01:35.447Z,21.5
2023-10-14T02:02:01.771Z,21.5
2023-10-14T02:02:34.571Z,18.5
2023-10-14T02:03:05.803Z,10.2
2023-10-14T02:03:35.062Z,10.2
2023-10-14T02:03:54.332Z,10.2
2023-10-14T02:04:25.861Z,10.2
2023-10-14T02:04:42.724Z,10.2
2023-10-14T02:05:14.669Z,7.1
2023-10-14T02:05:35.052Z,7.1
2023-10-14T02:06:01.695Z,7.1
2023-10-14T02:06:34.126Z,5.9
2023-10-14T02:07:05.524Z,4.1
2023-10-14T02:07:35.049Z,4.1
2023-10-14T02:07:54.667Z,4.1
2023-10-14T02:08:25.592Z,2.9
2023-10-14T02:08:42.619Z,2.9
2023-10-14T02:09:14.375Z,4.8
2023-10-14T02:09:34.770Z,4.8
2023-10-14T02:10:01.941Z,4.8
2023-10-14T02:10:33.421Z,4.8
2023-10-14T02:11:05.427Z,2.9
2023-10-14T02:11:34.979Z,2.9
2023-10-14T02:11:53.472Z,2.9
2023-10-14T02:12:26.562Z,2.9
2023-10-14T02:12:42.864Z,4.1
2023-10-14T02:13:13.388Z,4.1
2023-10-14T02:13:34.740Z,4.1
2023-10-14T02:14:02.088Z,4.1
2023-10-14T02:14:33.532Z,2.9
2023-10-14T02:15:05.685Z,2.9
2023-10-14T02:15:34.855Z,2.9
2023-10-14T02:15:53.801Z,2.9
2023-10-14T02:16:26.703Z,2.9
2023-10-14T02:16:42.748Z,2.9
2023-10-14T02:17:13.398Z,2.9
2023-10-14T02:17:35.285Z,2.9
2023-10-14T02:18:02.295Z,2.9
2023-10-14T02:18:33.383Z,2.9
2023-10-14T02:19:05.464Z,1.1
2023-10-14T02:19:34.942Z,1.1
2023-10-14T02:19:53.428Z,1.1
2023-10-14T02:20:26.663Z,1.1
2023-10-14T02:20:57.470Z,2.9
2023-10-14T02:21:29.433Z,2.9
2023-10-14T02:22:01.940Z,2.9
2023-10-14T02:22:33.339Z,2.9
2023-10-14T02:23:05.401Z,1.8
2023-10-14T02:23:34.664Z,1.8
2023-10-14T02:23:54.334Z,1.8
2023-10-14T02:24:25.452Z,1.8
2023-10-14T02:24:42.952Z,1.8
2023-10-14T02:25:14.682Z,1.8
2023-10-14T02:25:35.239Z,1.8
2023-10-14T02:26:01.573Z,1.8
2023-10-14T02:26:33.672Z,1.8
2023-10-14T02:27:05.402Z,1.8
2023-10-14T02:27:34.778Z,1.8
2023-10-14T02:27:53.553Z,1.8
2023-10-14T02:28:26.350Z,1.8
2023-10-14T02:28:57.942Z,1.8
2023-10-14T02:29:30.247Z,1.8
2023-10-14T02:30:01.904Z,1.8
2023-10-14T02:30:33.594Z,1.8
2023-10-14T02:31:05.476Z,0
2023-10-14T02:31:35.317Z,0
2023-10-14T02:31:54.295Z,0
2023-10-14T02:32:25.614Z,0
2023-10-14T02:32:42.526Z,0
2023-10-14T02:33:14.138Z,0
2023-10-14T02:33:35.508Z,0
2023-10-14T02:34:01.897Z,0
2023-10-14T02:34:34.242Z,0
2023-10-14T02:35:05.452Z,0
2023-10-14T02:35:34.691Z,0
2023-10-14T02:35:54.846Z,0
2023-10-14T02:36:25.316Z,0
2023-10-14T02:36:42.516Z,0
2023-10-14T02:37:14.683Z,0
2023-10-14T02:37:34.798Z,0
2023-10-14T02:38:01.445Z,0
2023-10-14T02:38:34.218Z,0
2023-10-14T02:39:05.374Z,0
2023-10-14T02:39:35.093Z,0
2023-10-14T02:39:54.331Z,0
2023-10-14T02:40:25.781Z,0
2023-10-14T02:40:42.533Z,0
2023-10-14T02:41:14.218Z,0
2023-10-14T02:41:34.940Z,0
2023-10-14T02:42:01.429Z,0
2023-10-14T02:42:34.317Z,1.8
2023-10-14T02:43:05.462Z,1.8
2023-10-14T02:43:35.379Z,1.8
2023-10-14T02:43:54.515Z,1.8
2023-10-14T02:44:25.549Z,1.8
2023-10-14T02:44:42.549Z,1.8
2023-10-14T02:45:14.559Z,1.8
2023-10-14T02:45:34.750Z,1.8
2023-10-14T02:46:01.458Z,1.8
2023-10-14T02:46:34.320Z,1.8
2023-10-14T02:47:05.426Z,1.8
2023-10-14T02:47:34.894Z,1.8
2023-10-14T02:47:54.622Z,1.8
2023-10-14T02:48:25.590Z,1.8
2023-10-14T02:48:42.608Z,1.8
2023-10-14T02:49:14.103Z,1.8
2023-10-14T02:49:34.681Z,1.8
2023-10-14T02:50:02.053Z,1.8
2023-10-14T02:50:34.230Z,1.8
2023-10-14T02:51:05.456Z,1.8
2023-10-14T02:51:34.754Z,1.8
2023-10-14T02:51:54.431Z,1.8
2023-10-14T02:52:25.592Z,1.8
2023-10-14T02:52:42.574Z,1.8
2023-10-14T02:53:14.231Z,0
2023-10-14T02:53:34.793Z,0
2023-10-14T02:54:01.382Z,0
2023-10-14T02:54:34.164Z,0
2023-10-14T02:55:05.662Z,0
2023-10-14T02:55:35.475Z,0
2023-10-14T02:55:54.490Z,0
2023-10-14T02:56:25.357Z,0
2023-10-14T02:56:42.542Z,0
2023-10-14T02:57:14.859Z,0
2023-10-14T02:57:34.759Z,0
2023-10-14T02:58:01.441Z,0
2023-10-14T02:58:34.279Z,1.1
2023-10-14T02:59:05.376Z,1.1
2023-10-14T02:59:34.804Z,1.1
2023-10-14T02:59:54.352Z,1.1
2023-10-14T03:00:25.809Z,1.1
2023-10-14T03:00:42.573Z,1.1
2023-10-14T03:01:14.352Z,1.1
2023-10-14T03:01:34.933Z,1.1
2023-10-14T03:02:01.545Z,1.1
2023-10-14T03:02:34.602Z,1.1
2023-10-14T03:03:05.667Z,1.1
2023-10-14T03:03:34.810Z,1.1
2023-10-14T03:03:54.513Z,1.1
2023-10-14T03:04:25.454Z,1.1
2023-10-14T03:04:42.598Z,1.1
2023-10-14T03:05:14.463Z,1.1
2023-10-14T03:05:34.737Z,1.1
2023-10-14T03:06:01.528Z,1.1
2023-10-14T03:06:34.169Z,1.1
2023-10-14T03:07:05.428Z,1.1
2023-10-14T03:07:34.863Z,1.1
2023-10-14T03:07:54.405Z,1.1
2023-10-14T03:08:25.447Z,1.1
2023-10-14T03:08:42.601Z,1.1
2023-10-14T03:09:14.286Z,0
2023-10-14T03:09:34.664Z,0
2023-10-14T03:10:01.641Z,0
2023-10-14T03:10:34.222Z,0
2023-10-14T03:11:05.357Z,0
2023-10-14T03:11:35.596Z,0
2023-10-14T03:11:54.507Z,0
2023-10-14T03:12:25.507Z,0
2023-10-14T03:12:42.555Z,0
2023-10-14T03:13:13.881Z,0
2023-10-14T03:13:34.648Z,0
2023-10-14T03:14:02.345Z,0
2023-10-14T03:14:33.345Z,0
2023-10-14T03:15:05.596Z,0
2023-10-14T03:15:34.698Z,0
2023-10-14T03:15:53.621Z,0
2023-10-14T03:16:26.138Z,0
2023-10-14T03:16:42.796Z,0
2023-10-14T03:17:13.379Z,0
2023-10-14T03:17:34.742Z,0
2023-10-14T03:18:03.181Z,0
2023-10-14T03:18:33.322Z,0
2023-10-14T03:19:05.388Z,0
2023-10-14T03:19:35.313Z,0
2023-10-14T03:19:53.430Z,0
2023-10-14T03:20:26.417Z,0
2023-10-14T03:20:42.652Z,0
2023-10-14T03:21:14.668Z,0
2023-10-14T03:21:34.638Z,0
2023-10-14T03:22:02.597Z,0
2023-10-14T03:22:33.313Z,0
2023-10-14T03:23:05.371Z,0
2023-10-14T03:23:35.030Z,0
2023-10-14T03:23:53.374Z,0
2023-10-14T03:24:26.220Z,0
2023-10-14T03:24:42.694Z,0
2023-10-14T03:25:13.485Z,0
2023-10-14T03:25:34.798Z,0
2023-10-14T03:26:01.310Z,0
2023-10-14T03:26:34.172Z,0
2023-10-14T03:27:05.302Z,0
2023-10-14T03:27:35.389Z,0
2023-10-14T03:27:54.268Z,0
2023-10-14T03:28:25.437Z,0
2023-10-14T03:28:42.593Z,0
2023-10-14T03:29:14.129Z,0
2023-10-14T03:29:35.260Z,0
2023-10-14T03:30:01.904Z,0
2023-10-14T03:30:34.579Z,0
2023-10-14T03:31:05.357Z,0
2023-10-14T03:31:34.917Z,0
2023-10-14T03:31:54.254Z,0
2023-10-14T03:32:25.337Z,0
2023-10-14T03:32:42.692Z,0
2023-10-14T03:33:14.403Z,0
2023-10-14T03:33:35.416Z,0
2023-10-14T03:34:01.572Z,0
2023-10-14T03:34:33.264Z,0
2023-10-14T03:35:05.446Z,0
2023-10-14T03:35:34.693Z,0
2023-10-14T03:35:53.583Z,0
2023-10-14T03:36:26.056Z,0
2023-10-14T03:36:42.861Z,0
2023-10-14T03:37:13.314Z,0
2023-10-14T03:37:34.754Z,0
2023-10-14T03:38:02.255Z,0
2023-10-14T03:38:33.307Z,0
2023-10-14T03:39:05.316Z,0
2023-10-14T03:39:35.154Z,0
2023-10-14T03:39:53.267Z,0
2023-10-14T03:40:26.392Z,0
2023-10-14T03:40:42.925Z,0
2023-10-14T03:41:13.422Z,0
2023-10-14T03:41:34.646Z,0
2023-10-14T03:42:02.192Z,0
2023-10-14T03:42:33.327Z,0
2023-10-14T03:43:06.225Z,0
2023-10-14T03:43:34.687Z,0
2023-10-14T03:43:53.313Z,0
2023-10-14T03:44:26.296Z,0
2023-10-14T03:44:58.231Z,0
2023-10-14T03:45:29.653Z,0
2023-10-14T03:46:01.368Z,0
2023-10-14T03:46:33.531Z,0
2023-10-14T03:47:05.378Z,0
2023-10-14T03:47:34.743Z,0
2023-10-14T03:47:54.240Z,0
2023-10-14T03:48:25.458Z,0
2023-10-14T03:48:42.600Z,0
2023-10-14T03:49:14.277Z,0
2023-10-14T03:49:34.685Z,0
2023-10-14T03:50:01.543Z,0
2023-10-14T03:50:34.426Z,0
2023-10-14T03:51:05.316Z,0
2023-10-14T03:51:34.691Z,0
2023-10-14T03:51:54.197Z,0
2023-10-14T03:52:25.313Z,0
2023-10-14T03:52:42.448Z,0
2023-10-14T03:53:14.206Z,0
2023-10-14T03:53:35.196Z,0
2023-10-14T03:54:01.403Z,0
2023-10-14T03:54:34.147Z,0
2023-10-14T03:55:05.789Z,0
2023-10-14T03:55:34.949Z,0
2023-10-14T03:55:54.533Z,0
2023-10-14T03:56:25.306Z,0
2023-10-14T03:56:42.495Z,0
2023-10-14T03:57:14.213Z,0
2023-10-14T03:57:34.931Z,0
2023-10-14T03:58:01.374Z,0
2023-10-14T03:58:34.017Z,0
2023-10-14T03:59:05.373Z,0
2023-10-14T03:59:35.527Z,0
2023-10-14T03:59:54.040Z,0
2023-10-14T04:00:25.939Z,0
2023-10-14T04:00:42.568Z,0
2023-10-14T04:01:13.351Z,0
2023-10-14T04:01:35.017Z,0
2023-10-14T04:02:02.324Z,0
2023-10-14T04:02:33.316Z,0
2023-10-14T04:03:05.391Z,0
2023-10-14T04:03:35.036Z,0
2023-10-14T04:03:53.958Z,0
2023-10-14T04:04:26.153Z,0
2023-10-14T04:04:42.736Z,0
2023-10-14T04:05:13.477Z,0
2023-10-14T04:05:34.752Z,0
2023-10-14T04:06:02.264Z,0
2023-10-14T04:06:34.179Z,0
2023-10-14T04:07:05.312Z,0
2023-10-14T04:07:35.461Z,0
2023-10-14T04:07:53.307Z,0
2023-10-14T04:08:26.151Z,0
2023-10-14T04:08:42.648Z,0
2023-10-14T04:09:13.318Z,0
2023-10-14T04:09:34.715Z,0
2023-10-14T04:10:01.710Z,0
2023-10-14T04:10:34.088Z,0
2023-10-14T04:11:05.320Z,0
2023-10-14T04:11:34.810Z,0
2023-10-14T04:11:54.194Z,0
2023-10-14T04:12:25.302Z,0
2023-10-14T04:12:42.677Z,0
2023-10-14T04:13:14.219Z,0
2023-10-14T04:13:34.769Z,0
2023-10-14T04:14:01.422Z,0
2023-10-14T04:14:34.181Z,0
2023-10-14T04:15:05.554Z,0
2023-10-14T04:15:34.680Z,0
2023-10-14T04:16:02.925Z,0
2023-10-14T04:16:25.494Z,0
2023-10-14T04:16:42.476Z,0
2023-10-14T04:17:13.313Z,0
2023-10-14T04:17:34.730Z,0
2023-10-14T04:18:01.575Z,0
2023-10-14T04:18:34.120Z,0
2023-10-14T04:19:05.526Z,0
2023-10-14T04:19:34.732Z,0
2023-10-14T04:19:54.472Z,0
2023-10-14T04:20:25.589Z,0
2023-10-14T04:20:42.433Z,0
2023-10-14T04:21:14.279Z,0
2023-10-14T04:21:34.669Z,0
2023-10-14T04:22:01.820Z,0
2023-10-14T04:22:34.073Z,0
2023-10-14T04:23:05.245Z,0
2023-10-14T04:23:34.718Z,0
2023-10-14T04:23:54.459Z,0
2023-10-14T04:24:25.305Z,0
2023-10-14T04:24:42.833Z,0
2023-10-14T04:25:14.636Z,0
2023-10-14T04:25:34.685Z,0
2023-10-14T04:26:01.459Z,0
2023-10-14T04:26:33.283Z,0
2023-10-14T04:27:05.408Z,0
2023-10-14T04:27:34.695Z,0
2023-10-14T04:27:53.411Z,0
2023-10-14T04:28:26.992Z,0
2023-10-14T04:28:57.976Z,0
2023-10-14T04:29:29.451Z,0
2023-10-14T04:30:03.364Z,0
2023-10-14T04:30:33.347Z,0
2023-10-14T04:31:05.404Z,0
2023-10-14T04:31:35.892Z,0
2023-10-14T04:31:54.614Z,0
2023-10-14T04:32:25.298Z,0
2023-10-14T04:32:42.440Z,0
2023-10-14T04:33:14.465Z,0
2023-10-14T04:33:34.912Z,0
2023-10-14T04:34:01.680Z,0
2023-10-14T04:34:34.045Z,0
2023-10-14T04:35:05.772Z,0
2023-10-14T04:35:34.738Z,0
2023-10-14T04:35:54.415Z,0
2023-10-14T04:36:25.699Z,0
2023-10-14T04:36:42.480Z,0
2023-10-14T04:37:14.290Z,0
2023-10-14T04:37:34.683Z,0
2023-10-14T04:38:01.435Z,0
2023-10-14T04:38:33.361Z,0
2023-10-14T04:39:05.485Z,0
2023-10-14T04:39:34.679Z,0
2023-10-14T04:39:53.265Z,0
2023-10-14T04:40:26.498Z,0
2023-10-14T04:40:42.708Z,0
2023-10-14T04:41:13.273Z,0
2023-10-14T04:41:34.740Z,0
2023-10-14T04:42:02.173Z,0
2023-10-14T04:42:33.275Z,0
2023-10-14T04:43:05.331Z,0
2023-10-14T04:43:35.182Z,0
2023-10-14T04:43:53.224Z,0
2023-10-14T04:44:26.129Z,0
2023-10-14T04:44:42.612Z,0
2023-10-14T04:45:14.021Z,0
2023-10-14T04:45:34.707Z,0
2023-10-14T04:46:02.248Z,0
2023-10-14T04:46:33.369Z,0
2023-10-14T04:47:05.442Z,0
2023-10-14T04:47:34.962Z,0
2023-10-14T04:47:53.385Z,0
2023-10-14T04:48:26.390Z,0
2023-10-14T04:48:42.792Z,0
2023-10-14T04:49:13.360Z,0
2023-10-14T04:49:34.650Z,0
2023-10-14T04:50:02.713Z,0
2023-10-14T04:50:33.317Z,0
2023-10-14T04:51:06.098Z,0
2023-10-14T04:51:34.705Z,0
2023-10-14T04:51:53.285Z,0
2023-10-14T04:52:26.124Z,0
2023-10-14T04:52:42.690Z,0
2023-10-14T04:53:13.302Z,0
2023-10-14T04:53:34.639Z,0
2023-10-14T04:54:02.942Z,0
2023-10-14T04:54:33.265Z,0
2023-10-14T04:55:05.702Z,0
2023-10-14T04:55:35.393Z,0
2023-10-14T04:55:53.406Z,0
2023-10-14T04:56:26.077Z,0
2023-10-14T04:56:42.645Z,0
2023-10-14T04:57:13.352Z,0
2023-10-14T04:57:34.848Z,0
2023-10-14T04:58:02.166Z,0
2023-10-14T04:58:33.655Z,0
2023-10-14T04:59:05.391Z,0
2023-10-14T04:59:34.873Z,0
2023-10-14T04:59:53.242Z,0
2023-10-14T05:00:26.691Z,0
2023-10-14T05:00:42.872Z,0
2023-10-14T05:01:13.400Z,0
2023-10-14T05:01:34.987Z,0
2023-10-14T05:02:02.165Z,0
2023-10-14T05:02:33.365Z,0
2023-10-14T05:03:06.136Z,0
2023-10-14T05:03:35.010Z,0
2023-10-14T05:03:53.210Z,0
2023-10-14T05:04:27.202Z,0
2023-10-14T05:04:57.314Z,0
2023-10-14T05:05:29.410Z,0
2023-10-14T05:06:01.549Z,0
2023-10-14T05:06:33.717Z,0
2023-10-14T05:07:05.558Z,0
2023-10-14T05:07:35.098Z,0
2023-10-14T05:07:55.126Z,0
2023-10-14T05:08:25.389Z,0
2023-10-14T05:08:42.509Z,0
2023-10-14T05:09:14.178Z,0
2023-10-14T05:09:34.682Z,0
2023-10-14T05:10:02.076Z,0
2023-10-14T05:10:34.065Z,0
2023-10-14T05:11:05.453Z,0
2023-10-14T05:11:34.786Z,0
2023-10-14T05:11:54.159Z,0
2023-10-14T05:12:25.344Z,0
2023-10-14T05:12:42.736Z,0
2023-10-14T05:13:14.084Z,0
2023-10-14T05:13:34.732Z,0
2023-10-14T05:14:01.473Z,0
2023-10-14T05:14:33.913Z,0
2023-10-14T05:15:05.547Z,0
2023-10-14T05:15:35.643Z,0
2023-10-14T05:15:53.412Z,0
2023-10-14T05:16:25.523Z,0
2023-10-14T05:16:42.496Z,0
2023-10-14T05:17:14.313Z,0
2023-10-14T05:17:34.684Z,0
2023-10-14T05:18:01.449Z,0
2023-10-14T05:18:34.140Z,0
2023-10-14T05:19:05.386Z,0
2023-10-14T05:19:34.688Z,0
2023-10-14T05:19:54.266Z,0
2023-10-14T05:20:25.552Z,0
2023-10-14T05:20:42.458Z,0
2023-10-14T05:21:13.266Z,0
2023-10-14T05:21:34.798Z,0
2023-10-14T05:22:02.953Z,0
2023-10-14T05:22:33.322Z,0
2023-10-14T05:23:06.089Z,0
2023-10-14T05:23:34.681Z,0
2023-10-14T05:23:53.230Z,0
2023-10-14T05:24:26.117Z,0
2023-10-14T05:24:42.619Z,0
2023-10-14T05:25:13.632Z,0
2023-10-14T05:25:35.144Z,0
2023-10-14T05:26:02.248Z,0
2023-10-14T05:26:33.348Z,0
2023-10-14T05:27:05.397Z,0
2023-10-14T05:27:34.681Z,0
2023-10-14T05:27:53.413Z,0
2023-10-14T05:28:26.076Z,0
2023-10-14T05:28:42.624Z,0
2023-10-14T05:29:13.274Z,0
2023-10-14T05:29:35.141Z,0
2023-10-14T05:30:03.017Z,0
2023-10-14T05:30:33.274Z,0
2023-10-14T05:31:05.548Z,0
2023-10-14T05:31:34.921Z,0
2023-10-14T05:31:53.540Z,0
2023-10-14T05:32:26.468Z,0
2023-10-14T05:32:42.727Z,0
2023-10-14T05:33:13.448Z,0
2023-10-14T05:33:34.897Z,0
2023-10-14T05:34:02.397Z,0
2023-10-14T05:34:33.287Z,0
2023-10-14T05:35:06.372Z,0
2023-10-14T05:35:34.776Z,0
2023-10-14T05:35:53.633Z,0
2023-10-14T05:36:25.352Z,0
2023-10-14T05:36:42.649Z,0
2023-10-14T05:37:14.429Z,0
2023-10-14T05:37:34.796Z,0
2023-10-14T05:38:01.406Z,0
2023-10-14T05:38:34.311Z,0
2023-10-14T05:39:05.589Z,0
2023-10-14T05:39:34.852Z,0
2023-10-14T05:39:54.584Z,0
2023-10-14T05:40:25.744Z,0
2023-10-14T05:40:42.424Z,0
2023-10-14T05:41:15.055Z,0
2023-10-14T05:41:34.677Z,0
2023-10-14T05:42:01.468Z,0
2023-10-14T05:42:33.302Z,0
2023-10-14T05:43:05.432Z,0
2023-10-14T05:43:34.736Z,0
2023-10-14T05:43:53.278Z,0
2023-10-14T05:44:26.241Z,0
2023-10-14T05:44:42.623Z,0
2023-10-14T05:45:13.553Z,0
2023-10-14T05:45:34.704Z,0
2023-10-14T05:46:03.065Z,0
2023-10-14T05:46:33.395Z,0
2023-10-14T05:47:05.421Z,0
2023-10-14T05:47:34.791Z,0
2023-10-14T05:47:53.293Z,0
2023-10-14T05:48:25.677Z,0
2023-10-14T05:48:43.186Z,0
2023-10-14T05:49:13.445Z,0
2023-10-14T05:49:34.790Z,0
2023-10-14T05:50:03.796Z,0
2023-10-14T05:50:33.306Z,0
2023-10-14T05:51:06.174Z,0
2023-10-14T05:51:34.822Z,0
2023-10-14T05:51:53.359Z,0
2023-10-14T05:52:26.104Z,0
2023-10-14T05:52:42.560Z,0
2023-10-14T05:53:14.335Z,0
2023-10-14T05:53:35.011Z,0
2023-10-14T05:54:01.512Z,0
2023-10-14T05:54:33.438Z,0
2023-10-14T05:55:05.496Z,0
2023-10-14T05:55:34.871Z,0
2023-10-14T05:55:53.597Z,0
2023-10-14T05:56:26.267Z,0
2023-10-14T05:56:42.824Z,0
2023-10-14T05:57:13.552Z,0
2023-10-14T05:57:34.976Z,0
2023-10-14T05:58:01.557Z,0
2023-10-14T05:58:34.325Z,0
2023-10-14T05:59:05.541Z,0
2023-10-14T05:59:34.833Z,0
2023-10-14T05:59:55.385Z,0
2023-10-14T06:00:26.072Z,0
2023-10-14T06:00:42.671Z,0
2023-10-14T06:01:13.421Z,0
2023-10-14T06:01:35.100Z,0
2023-10-14T06:02:02.681Z,0
2023-10-14T06:02:33.429Z,0
2023-10-14T06:03:05.557Z,0
2023-10-14T06:03:35.165Z,0
2023-10-14T06:03:53.500Z,0
2023-10-14T06:04:26.296Z,0
2023-10-14T06:04:42.921Z,0
2023-10-14T06:05:13.872Z,0
2023-10-14T06:05:34.818Z,0
2023-10-14T06:06:04.289Z,0
2023-10-14T06:06:33.535Z,0
2023-10-14T06:07:05.525Z,0
2023-10-14T06:07:34.942Z,0
2023-10-14T06:07:53.396Z,0
2023-10-14T06:08:27.011Z,0
2023-10-14T06:08:57.667Z,0
2023-10-14T06:09:30.243Z,0
2023-10-14T06:10:01.976Z,0
2023-10-14T06:10:34.377Z,0
2023-10-14T06:11:05.397Z,0
2023-10-14T06:11:34.922Z,0
2023-10-14T06:11:54.548Z,0
2023-10-14T06:12:25.598Z,0
2023-10-14T06:12:42.655Z,0
2023-10-14T06:13:14.375Z,0
2023-10-14T06:13:34.904Z,0
2023-10-14T06:14:01.551Z,0
2023-10-14T06:14:36.258Z,0
2023-10-14T06:15:05.730Z,0
2023-10-14T06:15:34.801Z,0
2023-10-14T06:15:54.598Z,0
2023-10-14T06:16:25.677Z,0
2023-10-14T06:16:42.694Z,0
2023-10-14T06:17:14.645Z,0
2023-10-14T06:17:34.968Z,0
2023-10-14T06:18:01.637Z,0
2023-10-14T06:18:34.116Z,0
2023-10-14T06:19:05.627Z,0
2023-10-14T06:19:35.023Z,0
2023-10-14T06:19:54.652Z,0
2023-10-14T06:20:25.786Z,0
2023-10-14T06:20:42.711Z,0
2023-10-14T06:21:14.284Z,0
2023-10-14T06:21:34.883Z,0
2023-10-14T06:22:01.893Z,0
2023-10-14T06:22:34.272Z,0
2023-10-14T06:23:05.840Z,0
2023-10-14T06:23:35.110Z,0
2023-10-14T06:23:54.279Z,0
2023-10-14T06:24:25.511Z,0
2023-10-14T06:24:42.700Z,0
2023-10-14T06:25:14.628Z,0
2023-10-14T06:25:34.835Z,0
2023-10-14T06:26:01.482Z,0
2023-10-14T06:26:33.469Z,0
2023-10-14T06:27:05.472Z,0
2023-10-14T06:27:34.821Z,0
2023-10-14T06:27:53.450Z,0
2023-10-14T06:28:27.323Z,0
2023-10-14T06:28:57.391Z,0
2023-10-14T06:29:29.340Z,0